Time;durP1;ratioP1;P1;durP2;ratioP2;P2;SDS_P1;SDS_P2;PMS_P1;PMS_P2;Temp;Humidity;BMP_temperature;BMP_pressure;BME280_temperature;BME280_humidity;BME280_pressure;Samples;Min_cycle;Max_cycle;Signal;HPM_P1;HPM_P2
2021/09/12 00:00:57;;;;;;;13.83;12.53;;;18.50;99.90;;;;;;5031497;28;20198;-64
2021/09/12 00:03:23;;;;;;;14.43;13.03;;;18.50;99.90;;;;;;5033361;28;20168;-65
2021/09/12 00:05:48;;;;;;;13.87;12.10;;;18.50;99.90;;;;;;5032966;28;20225;-64
2021/09/12 00:08:14;;;;;;;13.27;11.90;;;18.60;99.90;;;;;;5031083;28;20187;-64
2021/09/12 00:10:39;;;;;;;14.13;12.63;;;18.60;99.90;;;;;;5032388;28;20168;-65
2021/09/12 00:13:05;;;;;;;14.83;13.30;;;18.60;99.90;;;;;;5014749;28;20649;-65
2021/09/12 00:15:31;;;;;;;14.53;13.13;;;18.60;99.90;;;;;;5013647;28;20561;-66
2021/09/12 00:17:57;;;;;;;18.80;13.63;;;18.60;99.90;;;;;;5029522;28;20203;-66
2021/09/12 00:20:22;;;;;;;16.23;13.20;;;18.70;99.90;;;;;;5032953;28;20168;-64
2021/09/12 00:22:48;;;;;;;19.67;14.70;;;18.70;99.90;;;;;;5017773;28;20176;-65
2021/09/12 00:25:14;;;;;;;17.60;13.77;;;18.70;99.90;;;;;;5013037;28;20665;-65
2021/09/12 00:27:40;;;;;;;16.17;13.67;;;18.70;99.90;;;;;;5025743;28;20258;-64
2021/09/12 00:30:06;;;;;;;15.57;13.83;;;18.60;99.90;;;;;;5026095;28;20184;-64
2021/09/12 00:32:32;;;;;;;17.20;13.30;;;18.50;99.90;;;;;;5013113;28;20176;-65
2021/09/12 00:34:58;;;;;;;16.37;13.40;;;18.60;99.90;;;;;;5017528;28;20645;-65
2021/09/12 00:37:23;;;;;;;15.93;14.33;;;18.50;99.90;;;;;;5032724;28;20203;-65
2021/09/12 00:39:49;;;;;;;18.87;14.83;;;18.50;99.90;;;;;;5023460;28;20222;-64
2021/09/12 00:42:15;;;;;;;16.53;14.63;;;18.50;99.90;;;;;;5013036;28;20169;-66
2021/09/12 00:44:40;;;;;;;18.73;14.17;;;18.50;99.90;;;;;;5019657;28;20237;-66
2021/09/12 00:47:11;;;;;;;17.80;14.83;;;18.40;99.90;;;;;;5032516;28;20209;-66
2021/09/12 00:49:39;;;;;;;19.73;15.50;;;18.40;99.90;;;;;;5026117;28;20470;-66
2021/09/12 00:52:08;;;;;;;19.80;15.13;;;18.40;99.90;;;;;;5012883;28;20187;-66
2021/09/12 00:54:35;;;;;;;18.40;15.57;;;18.40;99.90;;;;;;5017564;28;20176;-66
2021/09/12 00:57:02;;;;;;;17.20;15.40;;;18.40;99.90;;;;;;5032086;28;20711;-66
2021/09/12 00:59:29;;;;;;;18.10;15.00;;;18.50;99.90;;;;;;5015980;28;20278;-66
2021/09/12 01:01:56;;;;;;;21.40;15.10;;;18.50;99.90;;;;;;5012418;28;20172;-65
2021/09/12 01:04:22;;;;;;;17.03;14.83;;;18.40;99.90;;;;;;5027017;28;20179;-65
2021/09/12 01:06:48;;;;;;;18.67;15.60;;;18.40;99.90;;;;;;5032157;28;20211;-65
2021/09/12 01:09:14;;;;;;;18.27;14.70;;;18.50;99.90;;;;;;5019142;28;20219;-64
2021/09/12 01:11:39;;;;;;;16.30;14.60;;;18.60;99.90;;;;;;5012405;28;20172;-64
2021/09/12 01:14:05;;;;;;;15.70;14.03;;;18.60;99.90;;;;;;5015958;28;20614;-65
2021/09/12 01:16:30;;;;;;;16.07;14.37;;;18.60;99.90;;;;;;5012339;28;20215;-64
2021/09/12 01:18:56;;;;;;;15.33;13.93;;;18.60;99.90;;;;;;5021408;28;20178;-65
2021/09/12 01:21:25;;;;;;;16.10;13.90;;;18.70;99.90;;;;;;5031617;28;20542;-66
2021/09/12 01:23:51;;;;;;;15.87;13.30;;;18.70;99.90;;;;;;5025841;28;20175;-65
2021/09/12 01:26:25;;;;;;;15.40;13.83;;;18.60;99.90;;;;;;5027326;28;20204;-64
2021/09/12 01:28:51;;;;;;;16.60;13.83;;;18.60;99.90;;;;;;5012217;28;20550;-64
2021/09/12 01:31:27;;;;;;;16.00;13.80;;;18.50;99.90;;;;;;5015603;28;20258;-64
2021/09/12 01:33:52;;;;;;;15.93;14.27;;;18.60;99.90;;;;;;5032055;28;20264;-65
2021/09/12 01:36:18;;;;;;;16.83;14.53;;;18.50;99.90;;;;;;5028141;28;20730;-64
2021/09/12 01:38:45;;;;;;;16.43;14.93;;;18.50;99.90;;;;;;5011885;28;20274;-65
2021/09/12 01:41:11;;;;;;;20.47;15.87;;;18.40;99.90;;;;;;5013575;28;20164;-64
2021/09/12 01:44:05;;;;;;;19.50;16.17;;;18.40;99.90;;;;;;5031649;28;20167;-65
2021/09/12 01:46:31;;;;;;;19.97;15.73;;;18.40;99.90;;;;;;4991981;28;20221;-65
2021/09/12 01:49:00;;;;;;;17.93;15.97;;;18.30;99.90;;;;;;4993684;28;20176;-64
2021/09/12 01:51:25;;;;;;;19.23;17.23;;;18.30;99.90;;;;;;5031271;28;20164;-66
2021/09/12 01:53:51;;;;;;;19.53;16.83;;;18.10;99.90;;;;;;5029889;28;20178;-68
2021/09/12 01:56:17;;;;;;;22.40;17.27;;;18.10;99.90;;;;;;5031323;28;20199;-66
2021/09/12 01:58:43;;;;;;;22.87;18.40;;;18.10;99.90;;;;;;5023740;28;20299;-66
2021/09/12 02:01:08;;;;;;;24.50;17.87;;;18.10;99.90;;;;;;5011441;28;20192;-67
2021/09/12 02:03:34;;;;;;;21.03;18.40;;;18.10;99.90;;;;;;5017400;28;20182;-66
2021/09/12 02:06:00;;;;;;;23.53;17.63;;;18.10;99.90;;;;;;5031197;28;20240;-65
2021/09/12 02:08:26;;;;;;;20.87;16.47;;;18.10;99.90;;;;;;5027236;28;20180;-65
2021/09/12 02:10:52;;;;;;;18.97;16.17;;;18.10;99.90;;;;;;5011272;28;20176;-67
2021/09/12 02:13:18;;;;;;;18.70;15.93;;;18.10;99.90;;;;;;5013868;28;20255;-67
2021/09/12 02:15:44;;;;;;;18.70;16.23;;;18.10;99.90;;;;;;5031141;28;20176;-67
2021/09/12 02:18:10;;;;;;;20.17;15.40;;;18.10;99.90;;;;;;5030381;28;20199;-66
2021/09/12 02:20:36;;;;;;;15.87;14.20;;;18.20;99.90;;;;;;5011341;28;20302;-67
2021/09/12 02:23:02;;;;;;;18.73;14.73;;;18.10;99.90;;;;;;5028373;28;20572;-64
2021/09/12 02:25:27;;;;;;;17.80;14.23;;;18.10;99.90;;;;;;5030404;28;20175;-66
2021/09/12 02:27:53;;;;;;;16.60;14.13;;;18.20;99.90;;;;;;5015131;28;20334;-65
2021/09/12 02:30:18;;;;;;;15.60;13.87;;;18.10;99.90;;;;;;5011476;28;20176;-64
2021/09/12 02:32:44;;;;;;;16.10;14.40;;;18.10;99.90;;;;;;5024699;28;20191;-64
2021/09/12 02:35:10;;;;;;;17.67;13.13;;;18.10;99.90;;;;;;5033519;28;20241;-65
2021/09/12 02:37:36;;;;;;;14.87;12.87;;;18.20;99.90;;;;;;5022711;28;20212;-66
2021/09/12 02:40:02;;;;;;;14.53;13.10;;;18.10;99.90;;;;;;5024008;28;20175;-65
2021/09/12 02:42:28;;;;;;;15.90;13.27;;;18.10;99.90;;;;;;5033645;28;20202;-65
2021/09/12 02:44:54;;;;;;;14.87;13.50;;;18.00;99.90;;;;;;5026938;28;20211;-65
2021/09/12 02:47:19;;;;;;;14.80;12.93;;;18.00;99.90;;;;;;5014878;28;20200;-65
2021/09/12 02:49:45;;;;;;;15.70;14.10;;;17.90;99.90;;;;;;5020607;28;20183;-64
2021/09/12 02:52:11;;;;;;;19.87;14.73;;;17.90;99.90;;;;;;5033473;28;20593;-65
2021/09/12 02:54:36;;;;;;;17.30;14.73;;;17.80;99.90;;;;;;5030265;28;20566;-64
2021/09/12 02:57:02;;;;;;;17.57;15.53;;;17.80;99.90;;;;;;5014710;28;20219;-67
2021/09/12 02:59:28;;;;;;;21.40;14.10;;;17.80;99.90;;;;;;5016944;28;20176;-66
2021/09/12 03:01:54;;;;;;;18.97;15.07;;;17.80;99.90;;;;;;5034454;28;20247;-65
2021/09/12 03:04:19;;;;;;;16.73;14.93;;;17.80;99.90;;;;;;5033566;28;20203;-65
2021/09/12 03:06:45;;;;;;;19.60;15.23;;;17.80;99.90;;;;;;5014616;28;20267;-64
2021/09/12 03:09:10;;;;;;;21.00;14.50;;;17.80;99.90;;;;;;5014670;28;20231;-67
2021/09/12 03:11:36;;;;;;;17.90;14.87;;;17.80;99.90;;;;;;5032842;28;20175;-65
2021/09/12 03:14:02;;;;;;;16.20;14.30;;;17.70;99.90;;;;;;5034303;28;20172;-66
2021/09/12 03:16:27;;;;;;;16.40;14.47;;;17.60;99.90;;;;;;5015928;28;20295;-66
2021/09/12 03:18:53;;;;;;;16.97;14.17;;;17.60;99.90;;;;;;5027679;28;20210;-66
2021/09/12 03:21:19;;;;;;;20.97;16.20;;;17.50;99.90;;;;;;5032722;28;20171;-65
2021/09/12 03:23:45;;;;;;;17.50;14.13;;;17.40;99.90;;;;;;5022051;28;20184;-65
2021/09/12 03:26:11;;;;;;;16.97;13.93;;;17.40;99.90;;;;;;5014378;28;20196;-66
2021/09/12 03:28:36;;;;;;;16.30;13.90;;;17.40;99.90;;;;;;5024226;28;20195;-65
2021/09/12 03:31:02;;;;;;;17.07;15.37;;;17.40;99.90;;;;;;5033819;28;20176;-67
2021/09/12 03:33:28;;;;;;;19.57;15.67;;;17.40;99.90;;;;;;5025656;28;20266;-66
2021/09/12 03:35:54;;;;;;;19.47;13.97;;;17.30;99.90;;;;;;5014047;28;20180;-66
2021/09/12 03:38:19;;;;;;;18.33;14.03;;;17.20;99.90;;;;;;5014952;28;20203;-65
2021/09/12 03:40:45;;;;;;;18.63;13.03;;;17.20;99.90;;;;;;5013684;28;20172;-65
2021/09/12 03:43:11;;;;;;;16.93;12.40;;;17.10;99.90;;;;;;5018263;28;20175;-65
2021/09/12 03:45:37;;;;;;;13.67;12.20;;;17.10;99.90;;;;;;5030993;28;20168;-65
2021/09/12 03:48:03;;;;;;;12.93;11.63;;;17.00;99.90;;;;;;5013912;28;20180;-65
2021/09/12 03:50:28;;;;;;;13.93;10.90;;;17.00;99.90;;;;;;5013678;28;20514;-65
2021/09/12 03:52:54;;;;;;;13.93;11.00;;;16.90;99.90;;;;;;5013958;28;20184;-65
2021/09/12 03:55:20;;;;;;;11.30;10.27;;;16.70;99.90;;;;;;5013848;28;20172;-65
2021/09/12 03:57:46;;;;;;;10.47;9.53;;;16.70;99.90;;;;;;5030780;28;20230;-66
2021/09/12 04:00:12;;;;;;;12.10;10.77;;;16.60;99.90;;;;;;5033219;28;20172;-66
2021/09/12 04:02:38;;;;;;;12.40;10.43;;;16.60;99.90;;;;;;5017459;28;20172;-66
2021/09/12 04:05:04;;;;;;;13.20;11.80;;;16.50;99.90;;;;;;5013653;28;20184;-65
2021/09/12 04:07:30;;;;;;;13.67;10.90;;;16.40;99.90;;;;;;5027365;28;20608;-65
2021/09/12 04:09:56;;;;;;;12.60;11.00;;;16.30;99.90;;;;;;5033025;28;20183;-66
2021/09/12 04:12:22;;;;;;;13.83;11.60;;;16.30;99.90;;;;;;5020812;28;20183;-66
2021/09/12 04:14:47;;;;;;;13.53;12.07;;;16.20;99.90;;;;;;5022355;28;20266;-66
2021/09/12 04:17:13;;;;;;;16.60;12.70;;;16.20;99.90;;;;;;5033012;28;20211;-66
2021/09/12 04:19:39;;;;;;;18.37;13.57;;;16.10;99.90;;;;;;5025258;28;20606;-66
2021/09/12 04:22:04;;;;;;;19.87;13.50;;;16.10;99.90;;;;;;5013263;28;20176;-66
2021/09/12 04:24:30;;;;;;;20.10;13.87;;;16.00;99.90;;;;;;5018679;28;20672;-67
2021/09/12 04:26:55;;;;;;;16.57;13.70;;;16.00;99.90;;;;;;5032931;28;20191;-67
2021/09/12 04:29:22;;;;;;;18.27;13.63;;;16.00;99.90;;;;;;5029036;28;20176;-67
2021/09/12 04:31:48;;;;;;;22.60;14.93;;;15.90;99.90;;;;;;5013250;28;20179;-65
2021/09/12 04:34:14;;;;;;;18.40;15.40;;;15.90;99.90;;;;;;5015006;28;20172;-65
2021/09/12 04:36:40;;;;;;;16.93;14.47;;;15.90;99.90;;;;;;5013111;28;20191;-65
2021/09/12 04:39:05;;;;;;;20.63;15.23;;;15.80;99.90;;;;;;5021620;28;20258;-65
2021/09/12 04:41:31;;;;;;;23.47;15.57;;;15.80;99.90;;;;;;5032517;28;20246;-65
2021/09/12 04:43:57;;;;;;;22.87;17.10;;;15.70;99.90;;;;;;5015550;28;20180;-66
2021/09/12 04:46:22;;;;;;;22.00;17.90;;;15.70;99.90;;;;;;5012918;28;20275;-65
2021/09/12 04:48:48;;;;;;;24.53;16.03;;;15.70;99.90;;;;;;5027554;28;20187;-65
2021/09/12 04:51:14;;;;;;;22.90;16.27;;;15.60;99.90;;;;;;5032012;28;20163;-65
2021/09/12 04:53:40;;;;;;;22.63;17.33;;;15.60;99.90;;;;;;5012653;28;20645;-65
2021/09/12 04:58:33;;;;;;;19.20;16.27;;;15.40;99.90;;;;;;5030303;28;20254;-64
2021/09/12 05:00:59;;;;;;;19.07;15.93;;;15.30;99.90;;;;;;5032115;28;20198;-65
2021/09/12 05:03:24;;;;;;;17.73;14.83;;;15.30;99.90;;;;;;5031865;28;20215;-65
2021/09/12 05:05:50;;;;;;;21.90;15.70;;;15.30;99.90;;;;;;5032207;28;20715;-65
2021/09/12 05:08:15;;;;;;;22.07;15.30;;;15.30;99.90;;;;;;5031512;28;20205;-65
2021/09/12 05:10:41;;;;;;;22.47;15.60;;;15.20;99.90;;;;;;5026862;28;20179;-65
2021/09/12 05:13:07;;;;;;;21.90;16.47;;;15.20;99.90;;;;;;5012512;28;20234;-65
2021/09/12 05:15:32;;;;;;;21.67;15.80;;;15.20;99.90;;;;;;5015042;28;20546;-65
2021/09/12 05:17:58;;;;;;;26.70;16.73;;;15.10;99.90;;;;;;5031869;28;20679;-64
2021/09/12 05:20:24;;;;;;;20.47;14.90;;;15.10;99.90;;;;;;5030380;28;20246;-65
2021/09/12 05:22:50;;;;;;;21.30;14.80;;;15.10;99.90;;;;;;5012263;28;20637;-64
2021/09/12 05:25:15;;;;;;;27.33;18.57;;;15.10;99.90;;;;;;5012292;28;20221;-64
2021/09/12 05:27:41;;;;;;;18.93;15.63;;;15.10;99.90;;;;;;5030910;28;20203;-64
2021/09/12 05:30:08;;;;;;;22.83;16.90;;;15.10;99.90;;;;;;5031863;28;20259;-64
2021/09/12 05:32:33;;;;;;;19.63;14.90;;;15.10;99.90;;;;;;5014331;28;20188;-65
2021/09/12 05:34:59;;;;;;;19.27;14.57;;;15.20;99.90;;;;;;5012170;28;20191;-64
2021/09/12 05:37:24;;;;;;;18.80;14.40;;;15.20;99.90;;;;;;5027220;28;20289;-65
2021/09/12 05:39:50;;;;;;;20.33;15.23;;;15.30;99.90;;;;;;5017721;28;20218;-65
2021/09/12 05:42:16;;;;;;;18.40;14.97;;;15.30;99.90;;;;;;5012006;28;20176;-65
2021/09/12 05:44:41;;;;;;;19.70;15.93;;;15.30;99.90;;;;;;5022286;28;20181;-65
2021/09/12 05:47:07;;;;;;;19.33;16.07;;;15.40;99.90;;;;;;5031644;28;20195;-64
2021/09/12 05:49:32;;;;;;;17.33;15.20;;;15.40;99.90;;;;;;5022317;28;20275;-65
2021/09/12 05:51:58;;;;;;;15.33;13.70;;;15.40;99.90;;;;;;5016445;28;20249;-65
2021/09/12 05:54:24;;;;;;;18.10;15.50;;;15.50;99.90;;;;;;5024291;28;20211;-65
2021/09/12 05:56:49;;;;;;;17.07;14.77;;;15.60;99.90;;;;;;5017903;28;20246;-65
2021/09/12 05:59:15;;;;;;;16.73;14.53;;;15.60;99.90;;;;;;5030449;28;20191;-65
2021/09/12 06:01:41;;;;;;;19.30;15.47;;;15.60;99.90;;;;;;5031171;28;20172;-65
2021/09/12 06:04:06;;;;;;;21.03;17.10;;;15.70;99.90;;;;;;5029343;28;20664;-65
2021/09/12 06:06:32;;;;;;;23.17;17.93;;;15.80;99.90;;;;;;5031292;28;20192;-65
2021/09/12 06:08:58;;;;;;;21.23;19.07;;;15.90;99.90;;;;;;5030341;28;20207;-65
2021/09/12 06:11:24;;;;;;;24.47;21.87;;;16.10;99.90;;;;;;5015381;28;20179;-65
2021/09/12 06:13:49;;;;;;;23.53;21.13;;;16.20;99.90;;;;;;5015240;28;20227;-65
2021/09/12 06:16:15;;;;;;;26.07;23.57;;;16.40;99.90;;;;;;5034639;28;20656;-65
2021/09/12 06:18:40;;;;;;;20.43;14.67;;;16.60;99.90;;;;;;5035103;28;20233;-65
2021/09/12 06:21:07;;;;;;;16.63;13.80;;;16.70;99.90;;;;;;5016133;28;20542;-65
2021/09/12 06:23:33;;;;;;;17.17;14.27;;;16.80;99.90;;;;;;5015320;28;20164;-65
2021/09/12 06:25:58;;;;;;;15.23;12.93;;;16.80;99.90;;;;;;5029756;28;20186;-65
2021/09/12 06:28:24;;;;;;;18.10;13.60;;;17.00;99.90;;;;;;5033408;28;20179;-65
2021/09/12 06:30:50;;;;;;;14.00;12.40;;;17.10;99.90;;;;;;5020677;28;20656;-65
2021/09/12 06:33:15;;;;;;;13.50;12.33;;;17.10;99.90;;;;;;5025108;28;20180;-65
2021/09/12 06:35:41;;;;;;;12.90;11.60;;;17.30;99.90;;;;;;5034496;28;20222;-65
2021/09/12 06:38:07;;;;;;;16.30;11.10;;;17.40;99.90;;;;;;5029798;28;20215;-65
2021/09/12 06:40:33;;;;;;;12.63;11.30;;;17.50;99.90;;;;;;5034586;28;20164;-65
2021/09/12 06:43:00;;;;;;;11.70;10.53;;;17.50;99.90;;;;;;5022974;28;20577;-65
2021/09/12 06:45:26;;;;;;;15.20;10.60;;;17.60;99.90;;;;;;5014998;28;20227;-65
2021/09/12 06:47:53;;;;;;;11.07;9.90;;;17.70;99.90;;;;;;5024587;28;20203;-65
2021/09/12 06:50:19;;;;;;;10.40;9.30;;;17.70;99.90;;;;;;5034264;28;20167;-65
2021/09/12 06:52:46;;;;;;;11.27;9.23;;;17.80;99.90;;;;;;5025687;28;20231;-65
2021/09/12 06:55:12;;;;;;;11.90;9.47;;;17.80;99.90;;;;;;5015056;28;20176;-65
2021/09/12 06:57:37;;;;;;;10.13;9.10;;;17.70;99.90;;;;;;5021069;28;20582;-64
2021/09/12 07:00:05;;;;;;;9.93;9.17;;;17.70;99.90;;;;;;5034233;28;20187;-65
2021/09/12 07:02:31;;;;;;;12.07;8.80;;;17.60;99.90;;;;;;5014994;28;20638;-64
2021/09/12 07:04:56;;;;;;;10.87;9.83;;;17.60;99.90;;;;;;5014627;28;20241;-64
2021/09/12 07:07:22;;;;;;;11.10;8.43;;;17.70;99.90;;;;;;5031764;28;20211;-65
2021/09/12 07:09:47;;;;;;;14.27;9.53;;;17.80;99.90;;;;;;5033707;28;20522;-64
2021/09/12 07:12:13;;;;;;;9.80;8.60;;;17.90;99.90;;;;;;5018557;28;20189;-64
2021/09/12 07:14:39;;;;;;;9.17;8.20;;;17.90;99.90;;;;;;5014240;28;20247;-64
2021/09/12 07:17:06;;;;;;;8.47;7.60;;;18.00;99.90;;;;;;5027641;28;20215;-65
2021/09/12 07:19:31;;;;;;;8.30;7.70;;;18.20;99.90;;;;;;5033829;28;20200;-64
2021/09/12 07:21:57;;;;;;;8.70;7.80;;;18.60;99.90;;;;;;5021873;28;20603;-65
2021/09/12 07:24:23;;;;;;;7.97;7.00;;;19.00;99.90;;;;;;5014354;28;20244;-65
2021/09/12 07:26:48;;;;;;;7.87;7.10;;;19.20;99.90;;;;;;5023831;28;20676;-64
2021/09/12 07:29:14;;;;;;;8.27;7.60;;;19.30;99.90;;;;;;5026839;28;20184;-65
2021/09/12 07:31:39;;;;;;;8.50;7.63;;;19.30;99.90;;;;;;5013885;28;20183;-65
2021/09/12 07:34:05;;;;;;;9.57;8.50;;;19.20;99.90;;;;;;5019090;28;20188;-65
2021/09/12 07:36:30;;;;;;;10.03;7.67;;;19.20;99.90;;;;;;5033861;28;20759;-65
2021/09/12 07:38:56;;;;;;;9.40;7.93;;;19.10;99.90;;;;;;5029800;28;20203;-65
2021/09/12 07:41:22;;;;;;;9.43;8.60;;;19.20;99.90;;;;;;5013523;28;20195;-65
2021/09/12 07:43:47;;;;;;;9.20;8.33;;;19.20;99.90;;;;;;5014726;28;20187;-65
2021/09/12 07:46:13;;;;;;;9.37;8.40;;;19.20;99.90;;;;;;5033665;28;20171;-64
2021/09/12 07:48:38;;;;;;;11.00;8.20;;;19.30;99.90;;;;;;5022496;28;20196;-64
2021/09/12 07:51:05;;;;;;;7.50;6.90;;;19.60;99.90;;;;;;5013473;28;20172;-65
2021/09/12 07:53:32;;;;;;;7.80;7.10;;;19.90;99.90;;;;;;5022881;28;20180;-64
2021/09/12 07:55:57;;;;;;;7.70;7.00;;;20.50;99.90;;;;;;5048654;28;20180;-65
2021/09/12 07:58:23;;;;;;;7.27;6.63;;;20.70;99.90;;;;;;5018312;28;20220;-64
2021/09/12 08:00:49;;;;;;;8.53;7.73;;;20.60;99.90;;;;;;5013193;28;20244;-64
2021/09/12 08:03:14;;;;;;;7.40;6.90;;;20.40;99.90;;;;;;5026158;28;20190;-65
2021/09/12 08:05:40;;;;;;;8.00;7.20;;;20.20;99.90;;;;;;5033221;28;20179;-64
2021/09/12 08:08:05;;;;;;;9.53;7.10;;;19.80;99.90;;;;;;5031518;28;20203;-64
2021/09/12 08:10:31;;;;;;;7.13;6.37;;;19.60;99.90;;;;;;5033381;28;20179;-64
2021/09/12 08:12:57;;;;;;;8.53;6.37;;;19.70;99.90;;;;;;5023620;28;20752;-64
2021/09/12 08:15:22;;;;;;;9.03;6.40;;;19.70;99.90;;;;;;5013082;28;20179;-64
2021/09/12 08:17:48;;;;;;;7.80;7.10;;;19.60;99.90;;;;;;5020193;28;20207;-65
2021/09/12 08:20:13;;;;;;;6.80;6.30;;;19.50;99.90;;;;;;5029147;28;20184;-64
2021/09/12 08:22:39;;;;;;;8.67;5.90;;;19.70;99.90;;;;;;5026720;28;20180;-64
2021/09/12 08:25:06;;;;;;;5.70;5.27;;;20.10;99.90;;;;;;5013201;28;20184;-64
2021/09/12 08:27:32;;;;;;;5.87;5.33;;;20.50;99.90;;;;;;5017366;28;20214;-64
2021/09/12 08:29:57;;;;;;;6.20;5.70;;;20.80;99.90;;;;;;5032300;28;20554;-64
2021/09/12 08:32:23;;;;;;;5.70;5.20;;;21.20;99.90;;;;;;5029374;28;20207;-65
2021/09/12 08:34:49;;;;;;;6.43;5.28;;;21.80;99.90;;;;;;5019104;28;20187;-64
2021/09/12 08:37:15;;;;;;;6.05;5.45;;;21.90;99.90;;;;;;5031938;28;20270;-65
2021/09/12 08:39:42;;;;;;;5.43;4.93;;;21.80;99.90;;;;;;5024964;28;20199;-65
2021/09/12 08:42:10;;;;;;;6.38;5.82;;;21.90;99.90;;;;;;5014192;28;20590;-65
2021/09/12 08:44:36;;;;;;;6.47;5.88;;;21.70;99.90;;;;;;5014264;28;20548;-64
2021/09/12 08:47:04;;;;;;;5.95;5.40;;;21.70;99.90;;;;;;5013908;28;20231;-65
2021/09/12 08:49:30;;;;;;;6.57;5.93;;;21.20;99.90;;;;;;5013477;28;20183;-65
2021/09/12 08:51:55;;;;;;;9.00;5.97;;;20.90;99.90;;;;;;5012253;28;20528;-65
2021/09/12 08:54:21;;;;;;;6.53;5.77;;;20.80;99.90;;;;;;5014730;28;20227;-65
2021/09/12 08:56:46;;;;;;;7.57;6.80;;;20.60;99.90;;;;;;5028527;28;20238;-65
2021/09/12 08:59:23;;;;;;;6.90;6.20;;;20.80;99.90;;;;;;5030820;28;20572;-65
2021/09/12 09:01:54;;;;;;;6.50;5.87;;;20.90;99.90;;;;;;5018662;28;20191;-64
2021/09/12 09:04:20;;;;;;;6.00;5.50;;;20.90;99.90;;;;;;5027972;28;20180;-65
2021/09/12 09:06:45;;;;;;;7.35;5.43;;;21.20;99.90;;;;;;5015868;28;20581;-65
2021/09/12 09:09:11;;;;;;;8.18;5.72;;;21.60;99.90;;;;;;5012415;28;20180;-64
2021/09/12 09:11:39;;;;;;;6.88;4.80;;;21.90;99.90;;;;;;5012608;28;20240;-66
2021/09/12 09:14:18;;;;;;;5.70;5.20;;;22.10;99.90;;;;;;5024161;28;20187;-66
2021/09/12 09:16:46;;;;;;;5.88;4.65;;;22.30;99.90;;;;;;5012143;28;20207;-65
2021/09/12 09:19:11;;;;;;;6.43;5.60;;;22.30;99.90;;;;;;5025471;28;20578;-65
2021/09/12 09:21:49;;;;;;;5.45;5.13;;;22.60;99.90;;;;;;5026412;28;20194;-64
2021/09/12 09:24:25;;;;;;;5.90;5.18;;;22.70;99.90;;;;;;5025673;28;20175;-64
2021/09/12 09:26:56;;;;;;;5.15;4.68;;;22.60;99.90;;;;;;5026223;28;20603;-65
2021/09/12 09:29:23;;;;;;;5.20;4.80;;;22.70;99.90;;;;;;5013150;28;20209;-65
2021/09/12 09:32:06;;;;;;;5.35;4.90;;;22.70;99.90;;;;;;5021560;28;20190;-65
2021/09/12 09:34:33;;;;;;;5.70;4.93;;;22.60;99.90;;;;;;5017886;28;20188;-65
2021/09/12 09:37:10;;;;;;;5.57;5.03;;;22.40;99.90;;;;;;5018063;28;20615;-65
2021/09/12 09:39:51;;;;;;;5.85;5.32;;;22.50;99.90;;;;;;5013796;28;20250;-65
2021/09/12 09:42:31;;;;;;;5.45;4.95;;;22.50;99.90;;;;;;5015153;28;20234;-65
2021/09/12 09:45:03;;;;;;;6.97;4.80;;;22.50;99.90;;;;;;5020232;28;20823;-65
2021/09/12 09:47:29;;;;;;;5.10;4.70;;;22.50;99.90;;;;;;5012048;28;20196;-65
2021/09/12 09:50:37;;;;;;;6.07;5.55;;;22.40;99.90;;;;;;5012472;28;20540;-65
2021/09/12 09:53:04;;;;;;;5.53;5.07;;;22.60;99.90;;;;;;5010519;28;20200;-66
2021/09/12 09:55:30;;;;;;;7.20;5.05;;;22.30;99.90;;;;;;5023159;28;20622;-66
2021/09/12 09:57:56;;;;;;;4.80;4.50;;;22.30;99.90;;;;;;5027731;28;20246;-66
2021/09/12 10:00:23;;;;;;;5.13;4.72;;;22.50;99.90;;;;;;5027409;28;20250;-66
2021/09/12 10:02:50;;;;;;;8.90;5.38;;;22.90;99.90;;;;;;5011369;28;20263;-65
2021/09/12 10:05:22;;;;;;;5.30;4.80;;;23.40;99.90;;;;;;5011809;28;20251;-66
2021/09/12 10:07:47;;;;;;;5.03;4.63;;;23.60;99.90;;;;;;5019350;28;20214;-65
2021/09/12 10:10:15;;;;;;;5.45;4.95;;;23.60;99.90;;;;;;5030657;28;20592;-66
2021/09/12 10:12:48;;;;;;;7.03;5.03;;;23.80;99.90;;;;;;5019393;28;20168;-65
2021/09/12 10:15:19;;;;;;;6.07;5.63;;;23.90;99.90;;;;;;5011265;28;20646;-66
2021/09/12 10:17:46;;;;;;;5.22;4.80;;;23.90;99.90;;;;;;5011021;28;20221;-65
2021/09/12 10:20:17;;;;;;;5.50;5.00;;;23.70;99.90;;;;;;5011739;28;20538;-66
2021/09/12 10:22:54;;;;;;;5.40;4.88;;;23.70;99.90;;;;;;5012332;28;20176;-65
2021/09/12 10:25:21;;;;;;;5.05;4.75;;;23.90;99.90;;;;;;5012556;28;20175;-65
2021/09/12 10:28:01;;;;;;;5.43;4.60;;;24.30;99.90;;;;;;5016813;28;20199;-65
2021/09/12 10:30:38;;;;;;;5.20;4.63;;;24.90;99.90;;;;;;5029379;28;20589;-65
2021/09/12 10:33:07;;;;;;;5.35;4.90;;;24.90;99.90;;;;;;5026732;28;20184;-66
2021/09/12 10:35:37;;;;;;;5.50;4.78;;;24.70;99.90;;;;;;5018409;28;20186;-65
2021/09/12 10:38:08;;;;;;;4.93;4.50;;;25.30;99.90;;;;;;5014960;28;20216;-66
2021/09/12 10:40:49;;;;;;;5.53;5.03;;;25.50;99.90;;;;;;5030804;28;20247;-66
2021/09/12 10:43:27;;;;;;;4.95;4.55;;;25.90;99.90;;;;;;5019906;28;20237;-66
2021/09/12 10:46:01;;;;;;;5.45;4.95;;;26.10;99.90;;;;;;5010880;28;20171;-65
2021/09/12 10:48:30;;;;;;;5.07;4.55;;;26.00;99.90;;;;;;5019364;28;20604;-66
2021/09/12 10:50:57;;;;;;;4.78;4.38;;;26.40;99.90;;;;;;5016123;28;20180;-66
2021/09/12 10:53:46;;;;;;;4.50;4.18;;;26.60;99.90;;;;;;5011142;28;20172;-66
2021/09/12 10:56:13;;;;;;;6.43;4.82;;;26.80;99.90;;;;;;5017253;28;20187;-66
2021/09/12 10:58:39;;;;;;;5.75;5.25;;;26.60;99.90;;;;;;5238695;22;20218;-67
2021/09/12 11:01:06;;;;;;;4.85;4.43;;;26.50;99.90;;;;;;5066725;28;20595;-67
2021/09/12 11:03:33;;;;;;;4.50;4.20;;;26.80;99.90;;;;;;5055462;28;20181;-68
2021/09/12 11:05:59;;;;;;;5.72;5.32;;;26.70;99.90;;;;;;5058622;28;20223;-67
2021/09/12 11:08:39;;;;;;;5.70;5.25;;;26.80;99.90;;;;;;5059743;28;20332;-67
2021/09/12 11:11:08;;;;;;;4.93;4.53;;;27.20;99.90;;;;;;5054047;28;20707;-67
2021/09/12 11:13:35;;;;;;;5.57;5.15;;;26.10;99.90;;;;;;5055398;28;20206;-67
2021/09/12 11:16:18;;;;;;;4.82;4.53;;;25.90;99.90;;;;;;5053820;28;20171;-66
2021/09/12 11:18:51;;;;;;;4.88;4.50;;;26.00;99.90;;;;;;5056709;28;20209;-67
2021/09/12 11:21:27;;;;;;;5.05;4.55;;;25.70;99.90;;;;;;5054025;28;20578;-67
2021/09/12 11:24:14;;;;;;;4.90;4.53;;;25.70;99.90;;;;;;5053744;28;20179;-66
2021/09/12 11:26:43;;;;;;;6.03;5.43;;;25.80;99.90;;;;;;5053793;28;20194;-67
2021/09/12 11:29:32;;;;;;;5.35;4.97;;;26.30;99.90;;;;;;5056177;28;20252;-65
2021/09/12 11:32:15;;;;;;;7.47;4.97;;;26.40;99.90;;;;;;5069415;28;20660;-67
2021/09/12 11:34:46;;;;;;;4.97;4.63;;;26.10;99.90;;;;;;5053962;28;20182;-67
2021/09/12 11:37:18;;;;;;;4.82;4.32;;;26.20;99.90;;;;;;5069939;28;20269;-66
2021/09/12 11:39:46;;;;;;;4.97;4.57;;;25.90;99.90;;;;;;5063307;28;20230;-66
2021/09/12 11:42:14;;;;;;;5.03;4.63;;;26.20;99.90;;;;;;5050197;28;20183;-66
2021/09/12 11:44:42;;;;;;;4.38;3.97;;;26.30;99.90;;;;;;5072396;28;20174;-66
2021/09/12 11:47:12;;;;;;;5.15;4.65;;;26.20;99.90;;;;;;5070795;28;20213;-67
2021/09/12 11:49:39;;;;;;;4.80;4.50;;;26.40;99.90;;;;;;5053298;28;20177;-65
2021/09/12 11:52:05;;;;;;;4.65;4.25;;;26.50;99.90;;;;;;5054370;28;20210;-67
2021/09/12 11:54:32;;;;;;;4.95;4.45;;;26.90;99.90;;;;;;5069886;28;20636;-66
2021/09/12 11:57:13;;;;;;;4.65;4.30;;;27.40;99.90;;;;;;5059185;28;20201;-68
2021/09/12 11:59:49;;;;;;;5.68;4.18;;;27.60;99.90;;;;;;5051934;28;20194;-67
2021/09/12 12:02:23;;;;;;;5.13;4.28;;;27.40;99.90;;;;;;5066560;28;20206;-67
2021/09/12 12:04:50;;;;;;;4.72;4.35;;;27.60;99.90;;;;;;5072691;28;20226;-67
2021/09/12 12:07:17;;;;;;;4.50;4.20;;;27.30;99.90;;;;;;5065789;28;20236;-67
2021/09/12 12:09:43;;;;;;;6.28;4.80;;;27.30;99.90;;;;;;5073149;28;20215;-67
2021/09/12 12:12:15;;;;;;;4.80;4.45;;;27.10;99.90;;;;;;5071144;28;20175;-65
2021/09/12 12:14:47;;;;;;;4.55;4.25;;;26.80;99.90;;;;;;5051817;28;20179;-66
2021/09/12 12:17:15;;;;;;;5.10;4.53;;;26.80;99.90;;;;;;5053023;28;20198;-66
2021/09/12 12:19:41;;;;;;;4.57;4.25;;;27.00;99.90;;;;;;5058282;28;20539;-67
2021/09/12 12:22:08;;;;;;;4.28;3.97;;;27.00;99.90;;;;;;5069875;28;20188;-67
2021/09/12 12:24:39;;;;;;;4.55;4.20;;;27.10;99.90;;;;;;5057045;28;20257;-67
2021/09/12 12:27:11;;;;;;;4.25;3.95;;;26.80;99.90;;;;;;5052511;28;20743;-66
2021/09/12 12:29:40;;;;;;;5.13;4.72;;;26.90;99.90;;;;;;5053714;28;20379;-66
2021/09/12 12:32:07;;;;;;;7.05;4.40;;;27.00;99.90;;;;;;5052708;28;20179;-67
2021/09/12 12:34:38;;;;;;;4.45;4.15;;;27.20;99.90;;;;;;5061762;28;20532;-67
2021/09/12 12:37:05;;;;;;;5.57;5.03;;;26.40;99.90;;;;;;5049576;28;20217;-66
2021/09/12 12:39:32;;;;;;;5.07;4.78;;;25.70;99.90;;;;;;5061735;28;20665;-67